Time;durP1;ratioP1;P1;durP2;ratioP2;P2;SDS_P1;SDS_P2;PMS_P1;PMS_P2;Temp;Humidity;BMP_temperature;BMP_pressure;BME280_temperature;BME280_humidity;BME280_pressure;Samples;Min_cycle;Max_cycle;Signal;HPM_P1;HPM_P2
2023/08/04 00:02:07;;;;;;;;;5.00;3.00;;;;;23.98;42.46;99786.16;110219;1251;19864;-39
2023/08/04 00:04:33;;;;;;;;;3.00;3.00;;;;;23.98;42.63;99786.77;110198;1251;20611;-38
2023/08/04 00:06:59;;;;;;;;;5.00;5.00;;;;;23.98;42.47;99789.16;110209;1257;19607;-38
2023/08/04 00:09:25;;;;;;;;;6.00;6.00;;;;;23.97;42.57;99790.89;110189;1251;19800;-38
2023/08/04 00:11:51;;;;;;;;;7.00;6.00;;;;;23.98;42.53;99790.64;110212;1265;19244;-38
2023/08/04 00:14:17;;;;;;;;;7.00;6.00;;;;;23.97;42.51;99791.83;110270;1265;18200;-38
2023/08/04 00:16:43;;;;;;;;;6.00;6.00;;;;;23.95;42.54;99792.20;110281;1251;19771;-38
2023/08/04 00:19:09;;;;;;;;;9.50;8.00;;;;;23.97;42.70;99794.85;110225;1265;19230;-38
2023/08/04 00:21:35;;;;;;;;;6.00;6.00;;;;;23.96;42.73;99792.08;110284;1265;18140;-38
2023/08/04 00:24:00;;;;;;;;;6.50;6.50;;;;;23.95;42.72;99790.09;110261;1265;18326;-38
2023/08/04 00:26:26;;;;;;;;;6.00;5.00;;;;;23.95;42.74;99795.81;110209;1250;20498;-38
2023/08/04 00:28:52;;;;;;;;;3.00;3.00;;;;;23.97;42.66;99794.50;110170;1265;18354;-37
2023/08/04 00:31:18;;;;;;;;;5.00;5.00;;;;;23.94;42.68;99798.41;110168;1265;22434;-38
2023/08/04 00:33:44;;;;;;;;;;;;;;;23.95;42.70;99800.26;110158;1266;20093;-37
2023/08/04 00:36:10;;;;;;;;;3.00;3.00;;;;;23.92;42.63;99806.89;110251;1251;22799;-38
2023/08/04 00:38:36;;;;;;;;;3.00;3.00;;;;;23.91;42.95;99806.47;110171;1265;23094;-38
2023/08/04 00:41:02;;;;;;;;;3.00;3.00;;;;;23.91;42.69;99812.62;110240;1251;22075;-37
2023/08/04 00:43:28;;;;;;;;;5.00;5.00;;;;;23.91;42.81;99817.80;110272;1249;20044;-38
2023/08/04 00:45:54;;;;;;;;;5.00;3.00;;;;;23.93;42.78;99822.29;110297;1265;18419;-37
2023/08/04 00:48:20;;;;;;;;;3.00;3.00;;;;;23.92;42.95;99827.84;110213;1265;19365;-39
2023/08/04 00:50:46;;;;;;;;;3.00;3.00;;;;;23.91;43.13;99829.80;110216;1250;19495;-38
2023/08/04 00:53:13;;;;;;;;;3.00;3.00;;;;;23.91;42.94;99835.05;110177;1265;21548;-39
2023/08/04 00:55:39;;;;;;;;;2.50;2.50;;;;;23.89;43.10;99832.73;110187;1249;22780;-38
2023/08/04 00:58:05;;;;;;;;;3.00;3.00;;;;;23.88;43.10;99831.49;110208;1249;22353;-37
2023/08/04 01:00:31;;;;;;;;;2.00;2.00;;;;;23.87;43.04;99826.83;110189;1250;22241;-38
2023/08/04 01:02:57;;;;;;;;;3.00;2.50;;;;;23.91;43.13;99831.05;110194;1251;23972;-38
2023/08/04 01:05:23;;;;;;;;;;;;;;;23.88;42.91;99831.88;110209;1251;19664;-38
2023/08/04 01:07:49;;;;;;;;;2.00;2.00;;;;;23.88;43.32;99835.00;110186;1251;20902;-37
2023/08/04 01:10:15;;;;;;;;;3.00;3.00;;;;;23.86;43.16;99838.23;110220;1265;19881;-38
2023/08/04 01:12:42;;;;;;;;;6.00;6.00;;;;;23.82;43.39;99836.02;110181;1257;22940;-38
2023/08/04 01:15:07;;;;;;;;;3.00;3.00;;;;;23.85;43.14;99835.30;110219;1250;21647;-38
2023/08/04 01:17:35;;;;;;;;;3.00;3.00;;;;;23.86;43.23;99842.71;110203;1249;21848;-37
2023/08/04 01:20:03;;;;;;;;;3.00;3.00;;;;;23.84;43.17;99854.19;110199;1251;19773;-38
2023/08/04 01:22:29;;;;;;;;;2.00;2.00;;;;;23.82;43.28;99861.95;110213;1251;21433;-38
2023/08/04 01:24:54;;;;;;;;;3.00;3.00;;;;;23.83;43.31;99861.32;110197;1251;24203;-38
2023/08/04 01:27:20;;;;;;;;;3.00;3.00;;;;;23.82;43.45;99862.18;110196;1265;19326;-38
2023/08/04 01:29:46;;;;;;;;;3.00;3.00;;;;;23.81;43.62;99864.23;110213;1265;18413;-38
2023/08/04 01:32:12;;;;;;;;;2.00;2.00;;;;;23.81;43.45;99865.86;110241;1265;19231;-37
2023/08/04 01:34:41;;;;;;;;;;;;;;;23.83;43.58;99872.23;110231;1265;18090;-38
2023/08/04 01:37:07;;;;;;;;;3.00;3.00;;;;;23.80;43.63;99869.58;110215;1265;21081;-38
2023/08/04 01:39:33;;;;;;;;;3.00;3.00;;;;;23.81;43.71;99874.85;110190;1251;21718;-38
2023/08/04 01:41:59;;;;;;;;;5.00;3.00;;;;;23.79;43.79;99876.73;110188;1250;23166;-38
2023/08/04 01:44:25;;;;;;;;;3.00;3.00;;;;;23.80;43.83;99887.00;110148;1251;22934;-38
2023/08/04 01:46:51;;;;;;;;;3.00;3.00;;;;;23.80;43.66;99891.88;110277;1251;20452;-38
2023/08/04 01:49:17;;;;;;;;;3.00;3.00;;;;;23.78;43.98;99898.64;110287;1257;19658;-38
2023/08/04 01:51:43;;;;;;;;;6.00;3.00;;;;;23.76;43.82;99900.62;110238;1265;22487;-38
2023/08/04 01:54:09;;;;;;;;;4.00;3.00;;;;;23.74;43.98;99904.44;110235;1265;19243;-38
2023/08/04 01:56:35;;;;;;;;;2.00;2.00;;;;;23.73;44.08;99900.75;110190;1251;19337;-38
2023/08/04 01:59:00;;;;;;;;;3.00;3.00;;;;;23.73;44.00;99910.92;110217;1265;18364;-38
2023/08/04 02:01:26;;;;;;;;;3.00;3.00;;;;;23.73;44.23;99910.96;110224;1250;20502;-38
2023/08/04 02:03:52;;;;;;;;;3.00;3.00;;;;;23.71;44.01;99911.55;110204;1251;19415;-36
2023/08/04 02:06:18;;;;;;;;;2.00;2.00;;;;;23.70;44.32;99915.92;110168;1250;18638;-38
2023/08/04 02:08:44;;;;;;;;;2.50;2.50;;;;;23.69;44.42;99917.78;110139;1250;20476;-38
2023/08/04 02:11:10;;;;;;;;;3.00;3.00;;;;;23.67;44.68;99913.41;110203;1257;19723;-38
2023/08/04 02:13:36;;;;;;;;;3.00;3.00;;;;;23.69;44.59;99916.64;110280;1265;18402;-39
2023/08/04 02:16:03;;;;;;;;;3.00;3.00;;;;;23.66;44.44;99914.91;110299;1251;20736;-38
2023/08/04 02:18:29;;;;;;;;;2.50;2.00;;;;;23.66;44.64;99916.66;110282;1257;18496;-38
2023/08/04 02:20:54;;;;;;;;;3.00;3.00;;;;;23.64;44.57;99918.80;110255;1256;22365;-38
2023/08/04 02:23:20;;;;;;;;;3.00;3.00;;;;;23.63;44.66;99917.34;110306;1251;20448;-38
2023/08/04 02:25:46;;;;;;;;;2.00;2.00;;;;;23.64;44.80;99919.17;110223;1251;19384;-38
2023/08/04 02:28:12;;;;;;;;;2.00;2.00;;;;;23.63;44.80;99915.02;110260;1251;19845;-38
2023/08/04 02:30:39;;;;;;;;;5.00;3.00;;;;;23.60;44.90;99917.73;110230;1265;19715;-39
2023/08/04 02:33:05;;;;;;;;;3.00;3.00;;;;;23.63;45.01;99919.36;110234;1249;19391;-39
2023/08/04 02:35:30;;;;;;;;;3.00;3.00;;;;;23.61;44.81;99923.02;110194;1257;19799;-39
2023/08/04 02:37:56;;;;;;;;;5.00;3.00;;;;;23.61;44.84;99928.59;110240;1250;19588;-38
2023/08/04 02:40:22;;;;;;;;;3.00;3.00;;;;;23.60;45.18;99932.34;110220;1250;19226;-38
2023/08/04 02:42:48;;;;;;;;;2.00;2.00;;;;;23.58;44.88;99936.31;110201;1265;22358;-38
2023/08/04 02:45:14;;;;;;;;;2.00;2.00;;;;;23.55;45.20;99933.42;110188;1250;20526;-38
2023/08/04 02:47:40;;;;;;;;;3.00;3.00;;;;;23.54;45.14;99939.78;110225;1251;19428;-38
2023/08/04 02:50:06;;;;;;;;;3.00;3.00;;;;;23.54;45.23;99935.41;110259;1265;19614;-38
2023/08/04 02:52:32;;;;;;;;;3.00;3.00;;;;;23.55;45.20;99934.35;110213;1265;19109;-38
2023/08/04 02:54:58;;;;;;;;;5.00;5.00;;;;;23.55;45.08;99935.83;110203;1257;19423;-38
2023/08/04 02:57:28;;;;;;;;;4.00;4.00;;;;;23.55;45.22;99934.41;110205;1265;18545;-38
2023/08/04 02:59:54;;;;;;;;;3.00;3.00;;;;;23.53;45.19;99937.56;110207;1257;20750;-38
2023/08/04 03:02:20;;;;;;;;;3.00;3.00;;;;;23.54;45.37;99938.41;110205;1265;18297;-38
2023/08/04 03:04:46;;;;;;;;;3.00;3.00;;;;;23.53;45.35;99938.15;110220;1249;18352;-38
2023/08/04 03:07:11;;;;;;;;;3.00;3.00;;;;;23.51;45.47;99941.77;110218;1249;20510;-38
2023/08/04 03:09:37;;;;;;;;;5.00;5.00;;;;;23.51;45.24;99944.48;110209;1251;19384;-38
2023/08/04 03:12:03;;;;;;;;;7.00;6.00;;;;;23.50;45.33;99943.73;110218;1250;20527;-38
2023/08/04 03:14:29;;;;;;;;;6.00;5.00;;;;;23.48;45.47;99948.25;110213;1257;19202;-38
2023/08/04 03:16:55;;;;;;;;;10.00;7.67;;;;;23.49;45.23;99948.03;110179;1250;22618;-38
2023/08/04 03:19:21;;;;;;;;;9.00;9.00;;;;;23.50;45.44;99947.50;110213;1265;19749;-38
2023/08/04 03:21:47;;;;;;;;;11.50;10.00;;;;;23.51;45.43;99952.19;110167;1265;19116;-38
2023/08/04 03:24:13;;;;;;;;;13.00;10.00;;;;;23.49;45.41;99963.54;110206;1250;19367;-37
2023/08/04 03:26:39;;;;;;;;;8.00;8.00;;;;;23.45;45.55;99975.17;110185;1265;19828;-37
2023/08/04 03:29:05;;;;;;;;;10.00;8.00;;;;;23.43;45.59;99979.65;110187;1251;20502;-38
2023/08/04 03:31:31;;;;;;;;;7.50;7.50;;;;;23.41;45.52;99974.48;110215;1265;18237;-38
2023/08/04 03:33:57;;;;;;;;;10.00;9.00;;;;;23.41;45.36;99972.77;110219;1265;18349;-38
2023/08/04 03:36:23;;;;;;;;;9.00;7.00;;;;;23.41;45.56;99968.10;110201;1257;22472;-38
2023/08/04 03:38:49;;;;;;;;;6.00;6.00;;;;;23.42;45.44;99971.02;110181;1265;22229;-38
2023/08/04 03:41:15;;;;;;;;;6.00;6.00;;;;;23.42;45.37;99971.31;110246;1250;18361;-38
2023/08/04 03:43:41;;;;;;;;;10.00;9.00;;;;;23.40;45.44;99969.44;110201;1265;19264;-39
2023/08/04 03:46:06;;;;;;;;;7.00;7.00;;;;;23.40;45.52;99973.87;110206;1265;18181;-38
2023/08/04 03:48:32;;;;;;;;;11.00;10.00;;;;;23.43;45.33;99978.11;110142;1265;18712;-38
2023/08/04 03:50:58;;;;;;;;;14.00;10.00;;;;;23.47;45.45;99977.70;110250;1250;21067;-38
2023/08/04 03:53:24;;;;;;;;;13.00;11.50;;;;;23.44;45.52;99983.77;110322;1257;18344;-38
2023/08/04 03:55:50;;;;;;;;;7.00;7.00;;;;;23.32;45.73;99987.80;110296;1251;19943;-38
2023/08/04 03:58:16;;;;;;;;;9.00;9.00;;;;;23.32;45.77;99987.09;110294;1249;20482;-38
2023/08/04 04:00:42;;;;;;;;;6.00;6.00;;;;;23.26;45.75;99989.46;110301;1251;19346;-38
2023/08/04 04:03:08;;;;;;;;;6.00;6.00;;;;;23.16;45.99;99991.98;110283;1251;19737;-38
2023/08/04 04:05:34;;;;;;;;;5.00;5.00;;;;;23.21;45.98;99998.20;110211;1249;20811;-38
2023/08/04 04:08:00;;;;;;;;;17.00;14.00;;;;;23.27;45.99;100007.48;110195;1251;19520;-38
2023/08/04 04:10:26;;;;;;;;;10.00;9.00;;;;;23.26;46.04;100012.97;110193;1251;20019;-38
2023/08/04 04:12:52;;;;;;;;;14.00;14.00;;;;;23.28;45.94;100015.65;110200;1249;20556;-38
2023/08/04 04:15:18;;;;;;;;;14.50;13.00;;;;;23.27;45.76;100020.15;110228;1251;20259;-38
2023/08/04 04:17:44;;;;;;;;;10.00;10.00;;;;;23.14;46.05;100020.80;110180;1265;22934;-38
2023/08/04 04:20:10;;;;;;;;;8.50;8.00;;;;;23.20;46.13;100020.23;110151;1251;20533;-38
2023/08/04 04:22:36;;;;;;;;;21.00;20.00;;;;;23.21;46.10;100027.86;110094;1257;19836;-37
2023/08/04 04:25:02;;;;;;;;;15.00;13.50;;;;;23.30;45.90;100033.98;110121;1251;21007;-38
2023/08/04 04:27:28;;;;;;;;;21.00;17.50;;;;;23.26;46.05;100031.10;110208;1250;21448;-37
2023/08/04 04:29:54;;;;;;;;;14.00;13.00;;;;;23.24;46.15;100031.40;110161;1251;19906;-37
2023/08/04 04:32:20;;;;;;;;;7.00;7.00;;;;;23.24;46.23;100036.84;110255;1251;19895;-37
2023/08/04 04:34:46;;;;;;;;;12.50;11.00;;;;;23.19;46.59;100040.54;110309;1251;20502;-37
2023/08/04 04:37:12;;;;;;;;;29.50;27.00;;;;;23.26;46.05;100037.95;110270;1251;22454;-38
2023/08/04 04:39:38;;;;;;;;;14.00;13.00;;;;;23.24;46.28;100036.66;110254;1251;22398;-37
2023/08/04 04:42:05;;;;;;;;;18.00;17.00;;;;;23.28;46.51;100043.63;110189;1265;19126;-38
2023/08/04 04:44:31;;;;;;;;;25.00;21.00;;;;;23.28;46.49;100049.64;110193;1257;20058;-38
2023/08/04 04:46:57;;;;;;;;;14.00;13.00;;;;;23.30;46.99;100050.27;110236;1249;18999;-37
2023/08/04 04:49:23;;;;;;;;;20.00;17.00;;;;;23.33;47.68;100048.35;110195;1265;19056;-38
2023/08/04 04:51:49;;;;;;;;;10.00;9.00;;;;;23.21;48.21;100053.77;110205;1251;19789;-38
2023/08/04 04:54:15;;;;;;;;;8.00;8.00;;;;;23.16;49.17;100058.99;110227;1257;20063;-38
2023/08/04 04:56:40;;;;;;;;;5.50;5.00;;;;;23.22;49.38;100063.27;110182;1265;20514;-38
2023/08/04 04:59:06;;;;;;;;;6.00;5.00;;;;;23.34;48.71;100060.52;110287;1249;19405;-38
2023/08/04 05:01:32;;;;;;;;;6.00;6.00;;;;;23.32;48.04;100060.17;110290;1250;19838;-38
2023/08/04 05:03:58;;;;;;;;;5.00;5.00;;;;;23.36;47.81;100049.04;110266;1251;20619;-38
2023/08/04 05:06:24;;;;;;;;;5.00;5.00;;;;;23.32;47.83;100051.52;110275;1250;18276;-38
2023/08/04 05:08:50;;;;;;;;;6.00;6.00;;;;;23.37;47.71;100056.79;110237;1265;18376;-37
2023/08/04 05:11:16;;;;;;;;;7.00;6.00;;;;;23.17;47.92;100051.56;110219;1249;20443;-38
2023/08/04 05:13:42;;;;;;;;;17.50;13.00;;;;;23.03;48.38;100049.81;110248;1265;18132;-38
2023/08/04 05:16:08;;;;;;;;;10.00;8.00;;;;;22.98;48.63;100047.39;110212;1250;21085;-38
2023/08/04 05:18:34;;;;;;;;;12.50;10.00;;;;;22.94;48.75;100048.84;110193;1265;22063;-37
2023/08/04 05:21:00;;;;;;;;;8.50;8.50;;;;;22.96;48.98;100047.36;110167;1251;22077;-37
2023/08/04 05:23:26;;;;;;;;;6.00;6.00;;;;;22.96;49.00;100050.70;110245;1265;21353;-37
2023/08/04 05:25:52;;;;;;;;;5.00;5.00;;;;;22.94;48.62;100054.78;110235;1251;22746;-38
2023/08/04 05:28:18;;;;;;;;;6.00;6.00;;;;;22.88;49.02;100061.55;110231;1265;18166;-38
2023/08/04 05:30:43;;;;;;;;;4.00;4.00;;;;;22.84;49.07;100062.61;110207;1265;21209;-37
2023/08/04 05:33:10;;;;;;;;;5.00;4.00;;;;;22.86;49.28;100050.83;110221;1250;20499;-38
2023/08/04 05:35:38;;;;;;;;;9.00;8.00;;;;;22.88;49.12;100043.04;110231;1257;19532;-37
2023/08/04 05:38:04;;;;;;;;;7.00;6.00;;;;;22.97;49.24;100048.77;110306;1251;21486;-38
2023/08/04 05:40:30;;;;;;;;;4.00;4.00;;;;;22.95;49.39;100048.31;110276;1249;22308;-38
2023/08/04 05:42:57;;;;;;;;;5.00;5.00;;;;;23.02;48.97;100054.63;110276;1251;22315;-38
2023/08/04 05:45:23;;;;;;;;;5.00;5.00;;;;;23.05;49.02;100067.42;110226;1249;22219;-37
2023/08/04 05:47:49;;;;;;;;;2.00;2.00;;;;;23.06;49.14;100080.62;110225;1251;19154;-36
2023/08/04 05:50:15;;;;;;;;;4.00;4.00;;;;;22.97;49.48;100079.17;110229;1257;24033;-38
2023/08/04 05:52:41;;;;;;;;;;;;;;;23.12;49.01;100075.20;110144;1265;19747;-37
2023/08/04 05:55:06;;;;;;;;;4.00;4.00;;;;;23.11;49.35;100070.91;110247;1265;19567;-38
2023/08/04 05:57:32;;;;;;;;;4.00;4.00;;;;;23.15;49.30;100072.35;110287;1265;18231;-38
2023/08/04 05:59:58;;;;;;;;;5.00;5.00;;;;;23.21;49.12;100077.39;110264;1257;20699;-38
2023/08/04 06:02:24;;;;;;;;;5.00;4.00;;;;;23.24;49.12;100087.21;110299;1251;20390;-37
2023/08/04 06:04:51;;;;;;;;;6.00;5.00;;;;;23.21;49.40;100087.92;110203;1265;18257;-38
2023/08/04 06:07:17;;;;;;;;;4.00;4.00;;;;;23.25;49.42;100090.63;110182;1249;20196;-37
2023/08/04 06:09:42;;;;;;;;;8.00;6.00;;;;;23.34;49.49;100090.41;110209;1265;20137;-37
2023/08/04 06:12:08;;;;;;;;;4.00;4.00;;;;;23.40;49.47;100085.86;110192;1251;18311;-38
2023/08/04 06:14:34;;;;;;;;;4.00;4.00;;;;;23.47;49.11;100082.98;110230;1251;23512;-37
2023/08/04 06:17:00;;;;;;;;;5.00;5.00;;;;;23.61;48.81;100078.48;110122;1251;22347;-37
2023/08/04 06:19:26;;;;;;;;;5.00;5.00;;;;;23.62;49.08;100081.73;110239;1257;19599;-37
2023/08/04 06:21:52;;;;;;;;;5.00;5.00;;;;;23.55;49.24;100081.30;110202;1250;19851;-38
2023/08/04 06:24:18;;;;;;;;;13.00;11.00;;;;;23.54;49.50;100090.52;110216;1265;19106;-38
2023/08/04 06:26:44;;;;;;;;;6.00;6.00;;;;;23.60;49.35;100092.48;110207;1251;19413;-38
2023/08/04 06:29:10;;;;;;;;;6.00;6.00;;;;;23.75;49.47;100093.31;110203;1265;19624;-38
2023/08/04 06:31:36;;;;;;;;;4.50;4.50;;;;;23.72;49.71;100090.92;110207;1265;22197;-39
2023/08/04 06:34:02;;;;;;;;;;;;;;;23.75;49.43;100101.30;110131;1251;19783;-38
2023/08/04 06:36:28;;;;;;;;;3.00;3.00;;;;;23.84;49.11;100105.00;110229;1265;19700;-38
2023/08/04 06:38:54;;;;;;;;;3.00;3.00;;;;;23.93;49.16;100107.21;110201;1265;21090;-39
2023/08/04 06:41:20;;;;;;;;;5.00;5.00;;;;;23.85;49.41;100104.11;110203;1265;18253;-39
2023/08/04 06:43:46;;;;;;;;;3.00;3.00;;;;;23.85;49.73;100102.66;110205;1265;19926;-38
2023/08/04 06:46:13;;;;;;;;;5.00;5.00;;;;;23.86;49.70;100099.59;110157;1265;20642;-38
2023/08/04 06:48:39;;;;;;;;;5.00;5.00;;;;;23.84;49.58;100097.05;110220;1265;19606;-38
2023/08/04 06:51:05;;;;;;;;;5.00;5.00;;;;;23.85;49.95;100094.04;110083;1266;19899;-38
2023/08/04 06:53:31;;;;;;;;;5.00;5.00;;;;;23.95;49.47;100096.54;110197;1265;20565;-38
2023/08/04 06:55:57;;;;;;;;;5.00;5.00;;;;;23.99;49.39;100099.16;110181;1265;23985;-38
2023/08/04 06:58:24;;;;;;;;;5.00;3.00;;;;;24.00;49.33;100102.29;110214;1265;21519;-39
2023/08/04 07:00:50;;;;;;;;;3.00;3.00;;;;;24.03;49.43;100102.45;110196;1265;22057;-38
2023/08/04 07:03:16;;;;;;;;;6.00;6.00;;;;;24.03;49.15;100101.73;110065;1265;19959;-37
2023/08/04 07:05:51;;;;;;;;;5.00;5.00;;;;;24.01;49.11;100107.31;110208;1265;19956;-38
2023/08/04 07:08:17;;;;;;;;;5.00;5.00;;;;;24.05;49.05;100110.51;110218;1265;21442;-38
2023/08/04 07:10:44;;;;;;;;;6.00;6.00;;;;;24.12;48.57;100115.54;110209;1265;20513;-38
2023/08/04 07:13:11;;;;;;;;;5.00;5.00;;;;;24.13;48.91;100120.34;110201;1265;19882;-38
2023/08/04 07:15:39;;;;;;;;;5.50;5.00;;;;;24.13;48.94;100122.08;110197;1250;19408;-39
2023/08/04 07:18:06;;;;;;;;;3.00;3.00;;;;;24.15;48.96;100123.09;110203;1250;19599;-39
2023/08/04 07:20:32;;;;;;;;;7.00;6.00;;;;;24.20;48.80;100126.69;110047;1251;18204;-39
2023/08/04 07:22:58;;;;;;;;;3.00;3.00;;;;;24.16;49.05;100129.73;110125;1265;20837;-39
2023/08/04 07:25:24;;;;;;;;;5.67;5.00;;;;;24.13;49.19;100130.78;110215;1265;19589;-39
2023/08/04 07:27:50;;;;;;;;;9.00;6.00;;;;;24.18;48.86;100136.15;110192;1265;19968;-39
2023/08/04 07:30:16;;;;;;;;;6.00;6.00;;;;;24.23;48.91;100138.27;109977;1265;267852;-39
2023/08/04 07:32:42;;;;;;;;;3.00;3.00;;;;;24.21;49.07;100146.98;110214;1265;19592;-38
2023/08/04 07:35:08;;;;;;;;;14.00;14.00;;;;;24.24;49.24;100147.77;110205;1265;21739;-38
2023/08/04 07:37:34;;;;;;;;;59.00;48.00;;;;;24.31;48.99;100155.30;110187;1249;19197;-38
2023/08/04 07:40:00;;;;;;;;;32.00;25.00;;;;;24.30;49.17;100161.48;110198;1257;22277;-38
2023/08/04 07:42:26;;;;;;;;;13.00;13.00;;;;;24.18;49.42;100169.80;110197;1265;23058;-38
2023/08/04 07:44:52;;;;;;;;;11.00;10.00;;;;;24.12;49.84;100176.23;110163;1265;20920;-38
2023/08/04 07:47:18;;;;;;;;;7.00;6.00;;;;;24.16;49.59;100177.67;110182;1249;20980;-38
2023/08/04 07:49:44;;;;;;;;;6.00;6.00;;;;;24.18;49.41;100178.39;110188;1265;21001;-38
2023/08/04 07:52:10;;;;;;;;;6.00;6.00;;;;;24.07;49.41;100179.35;110192;1265;19465;-37
2023/08/04 07:54:37;;;;;;;;;9.00;6.00;;;;;24.07;49.27;100176.01;110149;1265;18571;-37
2023/08/04 07:57:03;;;;;;;;;6.00;6.00;;;;;24.11;49.00;100180.06;110086;1257;22473;-37
2023/08/04 07:59:29;;;;;;;;;7.67;6.33;;;;;24.21;49.28;100180.27;110228;1249;22652;-36
2023/08/04 08:01:55;;;;;;;;;6.00;6.00;;;;;24.38;48.88;100177.94;110197;1257;20436;-38
2023/08/04 08:04:21;;;;;;;;;5.00;5.00;;;;;24.42;48.65;100177.47;110181;1265;18370;-38
2023/08/04 08:06:47;;;;;;;;;5.00;5.00;;;;;24.56;48.44;100178.40;110191;1250;20425;-37
2023/08/04 08:09:13;;;;;;;;;7.00;6.00;;;;;24.46;48.31;100179.50;110195;1251;19385;-38
2023/08/04 08:11:39;;;;;;;;;6.00;6.00;;;;;24.34;48.22;100185.70;110208;1251;21836;-38
2023/08/04 08:14:05;;;;;;;;;7.00;7.00;;;;;24.16;48.40;100187.47;110164;1265;23138;-37
2023/08/04 08:16:31;;;;;;;;;6.00;6.00;;;;;24.07;48.62;100195.16;110238;1265;19839;-37
2023/08/04 08:18:57;;;;;;;;;7.00;6.00;;;;;24.00;48.74;100197.45;110243;1265;18408;-38
2023/08/04 08:21:23;;;;;;;;;6.00;6.00;;;;;23.97;48.74;100197.34;110242;1265;19535;-38
2023/08/04 08:23:49;;;;;;;;;7.00;6.00;;;;;23.90;48.89;100201.48;110235;1265;19839;-38
2023/08/04 08:26:15;;;;;;;;;5.50;5.50;;;;;23.92;49.10;100197.05;110209;1265;19768;-38
2023/08/04 08:28:41;;;;;;;;;6.00;6.00;;;;;24.04;49.49;100194.24;110188;1265;18954;-38
2023/08/04 08:31:07;;;;;;;;;6.00;5.50;;;;;24.29;48.89;100200.79;110184;1251;19413;-37
2023/08/04 08:33:33;;;;;;;;;7.00;6.00;;;;;24.39;48.99;100207.59;110186;1265;22322;-37
2023/08/04 08:35:59;;;;;;;;;7.00;6.00;;;;;24.26;48.67;100212.67;110161;1265;19651;-38
2023/08/04 08:38:25;;;;;;;;;7.00;6.50;;;;;24.19;48.59;100207.48;110313;1265;18214;-38
2023/08/04 08:40:51;;;;;;;;;6.00;6.00;;;;;24.36;48.28;100206.30;110284;1265;18353;-38
2023/08/04 08:43:17;;;;;;;;;7.00;7.00;;;;;24.47;48.13;100209.11;110198;1251;20736;-38
2023/08/04 08:45:43;;;;;;;;;7.00;7.00;;;;;24.50;47.45;100210.08;110211;1265;19534;-39
2023/08/04 08:48:09;;;;;;;;;6.00;6.00;;;;;24.34;47.49;100207.96;110264;1250;19775;-37
2023/08/04 08:50:35;;;;;;;;;7.00;7.00;;;;;24.26;47.53;100212.73;110207;1250;21142;-38
2023/08/04 08:53:00;;;;;;;;;6.00;6.00;;;;;24.19;47.39;100218.39;110227;1250;19436;-37
2023/08/04 08:55:27;;;;;;;;;6.00;6.00;;;;;24.11;47.50;100218.18;110212;1249;19679;-38
2023/08/04 08:57:53;;;;;;;;;7.00;7.00;;;;;24.07;47.90;100225.92;110190;1265;22124;-38
2023/08/04 09:00:20;;;;;;;;;7.00;7.00;;;;;24.13;47.86;100227.48;110210;1265;23272;-38
2023/08/04 09:02:46;;;;;;;;;6.00;6.00;;;;;24.40;47.95;100228.31;110190;1250;20157;-37
2023/08/04 09:05:12;;;;;;;;;5.00;5.00;;;;;24.46;47.91;100229.39;110207;1249;20708;-38
2023/08/04 09:07:39;;;;;;;;;5.00;5.00;;;;;24.39;48.08;100232.52;110208;1251;19399;-38
2023/08/04 09:10:04;;;;;;;;;6.50;6.50;;;;;24.36;48.68;100236.38;110206;1251;21311;-38
2023/08/04 09:12:30;;;;;;;;;6.00;6.00;;;;;24.34;48.35;100243.02;110223;1250;22139;-38
2023/08/04 09:14:56;;;;;;;;;6.00;6.00;;;;;24.26;48.12;100248.25;110202;1251;19451;-38
2023/08/04 09:17:22;;;;;;;;;7.00;7.00;;;;;24.19;48.46;100247.89;110228;1250;19780;-38
2023/08/04 09:19:48;;;;;;;;;7.00;6.00;;;;;24.13;48.52;100253.59;110201;1265;19109;-38
2023/08/04 09:22:14;;;;;;;;;7.00;7.00;;;;;24.09;48.45;100250.77;110206;1251;19533;-38
2023/08/04 09:24:40;;;;;;;;;6.00;6.00;;;;;24.08;48.56;100251.14;110188;1250;19863;-38
2023/08/04 09:27:06;;;;;;;;;6.00;6.00;;;;;24.08;48.43;100253.69;110177;1265;19538;-38
2023/08/04 09:29:32;;;;;;;;;5.00;5.00;;;;;24.05;48.37;100254.59;110267;1251;19409;-38
2023/08/04 09:31:58;;;;;;;;;6.00;6.00;;;;;24.00;48.67;100257.48;110195;1265;18507;-38
2023/08/04 09:34:24;;;;;;;;;7.00;6.00;;;;;23.97;49.22;100264.46;110217;1265;20654;-38
2023/08/04 09:36:52;;;;;;;;;9.00;7.67;;;;;23.98;49.40;100268.08;110227;1265;18277;-38
2023/08/04 09:39:18;;;;;;;;;6.50;6.50;;;;;23.89;49.59;100270.74;110185;1265;18643;-38
2023/08/04 09:41:44;;;;;;;;;7.00;7.00;;;;;23.93;49.47;100276.94;110188;1265;20767;-38
2023/08/04 09:44:11;;;;;;;;;7.00;6.50;;;;;23.87;49.42;100279.00;110211;1265;19490;-39
2023/08/04 09:46:38;;;;;;;;;7.00;7.00;;;;;23.88;49.36;100285.98;110153;1250;22870;-39
2023/08/04 09:49:08;;;;;;;;;10.00;7.00;;;;;24.02;49.63;100284.23;110142;1265;22367;-38
2023/08/04 09:51:37;;;;;;;;;6.00;6.00;;;;;24.30;49.21;100281.04;110179;1265;19083;-38
2023/08/04 09:54:03;;;;;;;;;5.50;5.50;;;;;24.52;48.86;100280.34;110221;1265;18687;-38
2023/08/04 09:56:30;;;;;;;;;6.00;6.00;;;;;24.55;48.85;100280.89;110216;1265;20729;-39
2023/08/04 09:58:57;;;;;;;;;7.00;6.00;;;;;24.78;48.29;100282.89;110177;1265;20880;-39
2023/08/04 10:01:24;;;;;;;;;6.00;5.50;;;;;24.91;47.87;100284.34;110243;1265;21683;-38
2023/08/04 10:03:51;;;;;;;;;6.00;6.00;;;;;24.82;47.21;100284.27;110025;1265;22098;-38
2023/08/04 10:06:17;;;;;;;;;6.00;6.00;;;;;25.03;46.25;100278.90;109955;1266;20701;-38
2023/08/04 10:08:44;;;;;;;;;7.00;6.00;;;;;24.93;46.40;100286.27;110218;1265;18625;-39
2023/08/04 10:11:10;;;;;;;;;6.00;6.00;;;;;24.87;46.80;100289.98;110038;1266;22873;-39
2023/08/04 10:13:37;;;;;;;;;5.00;5.00;;;;;24.82;46.75;100292.02;110171;1249;19038;-38
2023/08/04 10:16:03;;;;;;;;;7.00;6.33;;;;;24.73;47.44;100294.24;110018;1266;20254;-38
2023/08/04 10:18:34;;;;;;;;;6.00;6.00;;;;;24.71;47.40;100296.80;110196;1250;21596;-38
2023/08/04 10:21:00;;;;;;;;;7.00;6.00;;;;;24.72;47.42;100297.40;110215;1251;19536;-38
2023/08/04 10:23:26;;;;;;;;;5.00;5.00;;;;;24.76;47.21;100299.66;110178;1265;19985;-38
2023/08/04 10:25:53;;;;;;;;;7.00;7.00;;;;;24.88;47.00;100299.00;110177;1249;20767;-38
2023/08/04 10:28:20;;;;;;;;;6.00;6.00;;;;;25.03;46.62;100298.45;110237;1250;18629;-37
2023/08/04 10:30:46;;;;;;;;;8.33;7.00;;;;;24.90;46.08;100294.73;110226;1265;20169;-37
2023/08/04 10:33:12;;;;;;;;;6.00;6.00;;;;;24.78;46.14;100299.00;110161;1265;20943;-38
2023/08/04 10:35:38;;;;;;;;;7.00;7.00;;;;;24.74;45.73;100305.18;110199;1250;19402;-38
2023/08/04 10:38:04;;;;;;;;;7.00;7.00;;;;;24.64;45.76;100312.40;110182;1265;22280;-38
2023/08/04 10:40:30;;;;;;;;;5.00;5.00;;;;;24.61;45.74;100313.39;110194;1257;23506;-38
2023/08/04 10:42:55;;;;;;;;;6.00;6.00;;;;;24.60;45.92;100318.34;110195;1257;20023;-38
2023/08/04 10:45:21;;;;;;;;;9.00;7.00;;;;;24.63;45.81;100318.89;110198;1250;20956;-38
2023/08/04 10:47:47;;;;;;;;;7.00;7.00;;;;;24.66;46.13;100324.75;110167;1251;20508;-37
2023/08/04 10:50:13;;;;;;;;;6.00;6.00;;;;;24.68;46.38;100326.95;110186;1265;18395;-37
2023/08/04 10:52:39;;;;;;;;;7.00;7.00;;;;;24.75;46.48;100326.08;110170;1251;19904;-37
2023/08/04 10:55:06;;;;;;;;;;;;;;;24.75;46.89;100328.55;110199;1258;20499;-38
2023/08/04 10:57:32;;;;;;;;;5.00;5.00;;;;;24.83;46.78;100331.77;110250;1249;19983;-38
2023/08/04 10:59:58;;;;;;;;;6.00;5.50;;;;;24.81;46.92;100327.75;110236;1265;18596;-37
2023/08/04 11:02:24;;;;;;;;;5.50;5.50;;;;;24.88;46.93;100330.94;110208;1249;21048;-37
2023/08/04 11:04:50;;;;;;;;;7.00;7.00;;;;;24.82;46.77;100329.05;110232;1250;19610;-37
2023/08/04 11:07:16;;;;;;;;;9.50;7.00;;;;;24.75;46.25;100327.49;110168;1257;20224;-38
2023/08/04 11:09:42;;;;;;;;;7.00;7.00;;;;;24.75;45.78;100326.17;110198;1251;20530;-38
2023/08/04 11:12:08;;;;;;;;;9.00;9.00;;;;;24.81;45.96;100324.58;110168;1265;23386;-37
2023/08/04 11:14:34;;;;;;;;;6.00;5.00;;;;;24.80;46.16;100321.52;110201;1251;19911;-38